Time;durP1;ratioP1;P1;durP2;ratioP2;P2;SDS_P1;SDS_P2;PMS_P1;PMS_P2;Temp;Humidity;BMP_temperature;BMP_pressure;BME280_temperature;BME280_humidity;BME280_pressure;Samples;Min_cycle;Max_cycle;Signal;HPM_P1;HPM_P2
2022/04/07 00:00:11;;;;;;;10.13;6.00;;;;;;;7.23;100.00;97949.56;5027078;28;20419;-50
2022/04/07 00:03:05;;;;;;;11.35;6.43;;;;;;;7.25;100.00;97956.41;5027042;28;20047;-50
2022/04/07 00:05:50;;;;;;;13.98;6.95;;;;;;;7.26;100.00;97952.88;5027213;28;20103;-50
2022/04/07 00:08:34;;;;;;;14.15;7.00;;;;;;;7.23;100.00;97946.97;5027827;28;20037;-49
2022/04/07 00:11:19;;;;;;;16.95;8.88;;;;;;;7.19;100.00;97938.44;5027553;28;20442;-50
2022/04/07 00:14:03;;;;;;;16.15;9.63;;;;;;;7.25;100.00;97940.78;5026646;28;20049;-50
2022/04/07 00:16:47;;;;;;;11.95;7.00;;;;;;;7.24;100.00;97938.22;5027433;28;20052;-50
2022/04/07 00:19:32;;;;;;;13.57;8.80;;;;;;;7.21;100.00;97927.94;5026804;28;20049;-49
2022/04/07 00:22:17;;;;;;;15.20;7.93;;;;;;;7.20;100.00;97929.69;5030211;28;20053;-50
2022/04/07 00:25:03;;;;;;;11.70;7.38;;;;;;;7.19;100.00;97933.22;5030891;28;20128;-50
2022/04/07 00:27:47;;;;;;;11.98;7.05;;;;;;;7.19;100.00;97930.63;5031357;28;20388;-50
2022/04/07 00:30:32;;;;;;;12.25;7.90;;;;;;;7.16;100.00;97924.69;5031402;28;20045;-50
2022/04/07 00:33:17;;;;;;;15.10;7.38;;;;;;;7.00;100.00;97919.25;5030964;28;20103;-50
2022/04/07 00:36:04;;;;;;;13.98;7.70;;;;;;;7.04;100.00;97915.63;5030959;28;20183;-50
2022/04/07 00:38:48;;;;;;;11.77;8.27;;;;;;;7.02;100.00;97907.03;5030350;28;20038;-50
2022/04/07 00:41:37;;;;;;;14.15;8.13;;;;;;;6.96;100.00;97908.13;5030084;28;20570;-50
2022/04/07 00:44:22;;;;;;;12.18;6.88;;;;;;;6.93;100.00;97907.41;5031135;28;20054;-50
2022/04/07 00:47:07;;;;;;;12.45;6.97;;;;;;;6.88;100.00;97904.13;5031256;28;20054;-49
2022/04/07 00:49:53;;;;;;;13.77;7.30;;;;;;;6.79;100.00;97898.41;5030794;28;20054;-49
2022/04/07 00:52:43;;;;;;;13.00;6.85;;;;;;;6.70;100.00;97903.97;5031051;28;20033;-50
2022/04/07 00:55:29;;;;;;;13.70;7.70;;;;;;;6.66;100.00;97898.91;5030663;28;20045;-50
2022/04/07 00:58:14;;;;;;;12.75;7.60;;;;;;;6.57;100.00;97896.72;5030727;28;20038;-51
2022/04/07 01:00:59;;;;;;;12.45;6.90;;;;;;;6.48;100.00;97893.53;5030381;28;20076;-50
2022/04/07 01:03:43;;;;;;;15.13;7.80;;;;;;;6.44;100.00;97901.53;5030781;28;20057;-50
2022/04/07 01:06:29;;;;;;;13.55;6.97;;;;;;;6.30;100.00;97889.03;5029677;28;20053;-49
2022/04/07 01:09:15;;;;;;;11.07;6.90;;;;;;;6.34;100.00;97893.25;5030063;28;20034;-50
2022/04/07 01:12:00;;;;;;;11.52;7.10;;;;;;;6.29;100.00;97887.34;5031045;28;20057;-50
2022/04/07 01:14:55;;;;;;;12.32;7.13;;;;;;;6.30;100.00;97884.72;5030194;28;20136;-50
2022/04/07 01:17:40;;;;;;;11.95;7.00;;;;;;;6.25;100.00;97891.81;5029635;28;20057;-49
2022/04/07 01:20:24;;;;;;;13.95;7.78;;;;;;;6.23;100.00;97885.81;5030465;28;20551;-50
2022/04/07 01:23:09;;;;;;;13.70;7.90;;;;;;;6.22;100.00;97888.50;5030050;28;20050;-50
2022/04/07 01:25:53;;;;;;;10.35;6.80;;;;;;;6.24;100.00;97884.94;5030124;28;20045;-50
2022/04/07 01:28:38;;;;;;;11.38;7.38;;;;;;;6.21;100.00;97879.84;5029555;28;20512;-50
2022/04/07 01:31:22;;;;;;;14.63;8.05;;;;;;;6.13;100.00;97883.63;5029736;28;20049;-50
2022/04/07 01:34:13;;;;;;;13.65;7.85;;;;;;;6.09;100.00;97880.31;5029962;28;21269;-50
2022/04/07 01:36:57;;;;;;;12.13;7.40;;;;;;;6.03;100.00;97873.59;5029512;28;20076;-50
2022/04/07 01:39:43;;;;;;;11.48;7.22;;;;;;;5.96;100.00;97874.72;5029816;28;20065;-50
2022/04/07 01:42:28;;;;;;;12.73;7.82;;;;;;;5.93;100.00;97871.41;5030365;28;20452;-50
2022/04/07 01:45:13;;;;;;;13.63;7.20;;;;;;;5.86;100.00;97865.53;5029916;28;20054;-50
2022/04/07 01:47:57;;;;;;;14.88;8.05;;;;;;;5.77;100.00;97874.50;5030631;28;20037;-49
2022/04/07 01:50:44;;;;;;;12.40;7.05;;;;;;;5.75;100.00;97868.53;5029406;28;20053;-50
2022/04/07 01:53:29;;;;;;;10.98;6.25;;;;;;;5.72;100.00;97876.44;5029229;28;20053;-50
2022/04/07 01:56:13;;;;;;;13.82;7.10;;;;;;;5.67;100.00;97864.50;5029239;28;20061;-49
2022/04/07 01:58:58;;;;;;;14.10;7.32;;;;;;;5.65;100.00;97861.13;5028480;28;20115;-50
2022/04/07 02:01:43;;;;;;;10.30;6.93;;;;;;;5.61;100.00;97858.63;5029370;28;20053;-50
2022/04/07 02:04:28;;;;;;;11.48;7.47;;;;;;;5.59;100.00;97852.66;5028830;28;20125;-50
2022/04/07 02:07:12;;;;;;;11.15;7.22;;;;;;;5.63;100.00;97853.41;5029172;28;20049;-49
2022/04/07 02:09:57;;;;;;;13.48;7.32;;;;;;;5.65;100.00;97864.56;5030095;28;20130;-50
2022/04/07 02:12:42;;;;;;;13.98;7.57;;;;;;;5.61;100.00;97856.03;5030746;28;20096;-50
2022/04/07 02:15:27;;;;;;;11.00;7.60;;;;;;;5.59;100.00;97851.81;5028586;28;20464;-50
2022/04/07 02:18:11;;;;;;;12.27;6.88;;;;;;;5.69;100.00;97845.38;5029494;28;20392;-50
2022/04/07 02:20:56;;;;;;;10.13;6.97;;;;;;;5.73;100.00;97854.75;5028816;28;20419;-50
2022/04/07 02:23:44;;;;;;;13.13;8.52;;;;;;;5.77;100.00;97858.09;5028211;28;20095;-50
2022/04/07 02:26:30;;;;;;;10.80;6.97;;;;;;;5.80;100.00;97850.19;5029251;28;20029;-50
2022/04/07 02:29:15;;;;;;;12.15;8.10;;;;;;;5.81;100.00;97850.09;5029314;28;20045;-50
2022/04/07 02:31:59;;;;;;;10.32;6.68;;;;;;;5.84;100.00;97847.41;5029673;28;20034;-50
2022/04/07 02:34:44;;;;;;;10.38;6.47;;;;;;;5.86;100.00;97845.59;5029030;28;20045;-50
2022/04/07 02:37:28;;;;;;;11.75;7.53;;;;;;;5.84;100.00;97847.41;5028633;28;20033;-49
2022/04/07 02:40:13;;;;;;;11.30;7.55;;;;;;;5.78;100.00;97834.63;5029051;28;20053;-50
2022/04/07 02:42:58;;;;;;;13.45;7.95;;;;;;;5.72;100.00;97842.69;5029921;28;20045;-50
2022/04/07 02:45:42;;;;;;;13.20;7.43;;;;;;;5.63;100.00;97841.25;5028594;28;20073;-50
2022/04/07 02:48:26;;;;;;;11.88;7.40;;;;;;;5.52;100.00;97837.34;5028545;28;20449;-50
2022/04/07 02:51:11;;;;;;;14.13;8.50;;;;;;;5.46;100.00;97832.34;5028286;28;20053;-50
2022/04/07 02:53:58;;;;;;;10.23;6.78;;;;;;;5.43;100.00;97830.75;5027220;28;20611;-50
2022/04/07 02:56:43;;;;;;;13.52;7.40;;;;;;;5.34;100.00;97820.69;5027552;28;20095;-50
2022/04/07 02:59:27;;;;;;;12.35;7.18;;;;;;;5.38;100.00;97832.63;5028150;28;20065;-51
2022/04/07 03:02:12;;;;;;;11.68;7.15;;;;;;;5.33;100.00;97825.03;5026046;28;20056;-50
2022/04/07 03:04:56;;;;;;;9.65;6.75;;;;;;;5.36;100.00;97829.25;5027048;28;20435;-50
2022/04/07 03:07:40;;;;;;;12.27;6.80;;;;;;;5.35;100.00;97828.41;5028122;28;20487;-50
2022/04/07 03:10:25;;;;;;;11.68;7.72;;;;;;;5.39;100.00;97826.53;5027128;28;20064;-50
2022/04/07 03:13:09;;;;;;;11.80;7.22;;;;;;;5.39;100.00;97834.31;5028444;28;20595;-50
2022/04/07 03:15:54;;;;;;;11.90;7.50;;;;;;;5.36;100.00;97831.84;5028131;28;20048;-50
2022/04/07 03:18:39;;;;;;;13.52;8.57;;;;;;;5.39;100.00;97830.00;5027451;28;20045;-50
2022/04/07 03:21:23;;;;;;;13.15;8.55;;;;;;;5.39;100.00;97835.19;5026650;28;20073;-49
2022/04/07 03:24:07;;;;;;;12.52;8.38;;;;;;;5.34;100.00;97825.88;5027449;28;20049;-50
2022/04/07 03:26:53;;;;;;;13.23;7.97;;;;;;;5.28;100.00;97823.47;5027773;28;20057;-49
2022/04/07 03:29:37;;;;;;;13.93;8.82;;;;;;;5.24;100.00;97809.78;5028314;28;20443;-49
2022/04/07 03:32:22;;;;;;;16.10;9.40;;;;;;;5.24;100.00;97811.53;5028038;28;20107;-50
2022/04/07 03:35:07;;;;;;;16.88;10.05;;;;;;;5.21;100.00;97814.22;5028178;28;20064;-50
2022/04/07 03:37:52;;;;;;;14.15;8.65;;;;;;;5.20;100.00;97810.78;5028085;28;20144;-50
2022/04/07 03:40:36;;;;;;;16.17;8.77;;;;;;;5.16;100.00;97815.22;5028644;28;20045;-50
2022/04/07 03:43:21;;;;;;;15.85;8.80;;;;;;;5.09;100.00;97808.53;5029163;28;20044;-50
2022/04/07 03:46:06;;;;;;;15.45;9.00;;;;;;;5.08;100.00;97808.59;5028956;28;20061;-50
2022/04/07 03:48:51;;;;;;;22.83;11.88;;;;;;;5.08;100.00;97812.03;5028763;28;20045;-49
2022/04/07 03:51:36;;;;;;;26.65;12.45;;;;;;;5.03;100.00;97811.34;5029287;28;20041;-50
2022/04/07 03:54:20;;;;;;;38.53;16.80;;;;;;;4.99;100.00;97811.50;5028419;28;20049;-49
2022/04/07 03:57:05;;;;;;;39.10;17.65;;;;;;;4.99;100.00;97808.91;5026299;28;20061;-50
2022/04/07 03:59:50;;;;;;;27.80;13.55;;;;;;;4.97;100.00;97821.94;5029002;28;20411;-50
2022/04/07 04:02:34;;;;;;;22.85;13.43;;;;;;;4.86;100.00;97822.31;5028664;28;20057;-50
2022/04/07 04:05:19;;;;;;;23.17;12.60;;;;;;;4.85;100.00;97817.19;5028729;28;20092;-50
2022/04/07 04:08:04;;;;;;;23.55;13.65;;;;;;;4.86;100.00;97818.88;5028573;28;20057;-50
2022/04/07 04:10:48;;;;;;;22.60;13.65;;;;;;;4.88;100.00;97815.31;5026292;28;20059;-50
2022/04/07 04:13:33;;;;;;;24.27;12.80;;;;;;;4.85;100.00;97815.44;5026077;28;20042;-50
2022/04/07 04:16:17;;;;;;;20.42;12.75;;;;;;;4.89;100.00;97816.16;5024543;28;20163;-50
2022/04/07 04:19:02;;;;;;;23.80;14.02;;;;;;;4.85;100.00;97805.06;5025697;28;20468;-49
2022/04/07 04:21:46;;;;;;;102.07;51.92;;;;;;;4.81;100.00;97806.06;5024798;28;20061;-49
2022/04/07 04:24:31;;;;;;;127.95;70.50;;;;;;;4.92;100.00;97801.34;5025903;28;20049;-50
2022/04/07 04:27:15;;;;;;;149.73;77.35;;;;;;;4.88;100.00;97801.50;5026065;28;20034;-50
2022/04/07 04:30:00;;;;;;;137.32;74.75;;;;;;;4.94;100.00;97809.09;5024562;28;20847;-49
2022/04/07 04:32:44;;;;;;;126.00;67.18;;;;;;;5.08;100.00;97801.66;5025230;28;20049;-50
2022/04/07 04:35:29;;;;;;;97.45;51.28;;;;;;;5.14;100.00;97806.66;5025071;28;20049;-49
2022/04/07 04:38:13;;;;;;;95.63;48.05;;;;;;;5.24;100.00;97806.34;5026578;28;20396;-50
2022/04/07 04:40:57;;;;;;;113.82;54.00;;;;;;;5.19;100.00;97783.13;5025455;28;20092;-49
2022/04/07 04:43:41;;;;;;;90.05;42.97;;;;;;;5.35;100.00;97807.63;5024821;28;20037;-50
2022/04/07 04:46:27;;;;;;;81.97;36.53;;;;;;;5.47;100.00;97808.94;5026754;28;20392;-50
2022/04/07 04:49:12;;;;;;;65.80;29.10;;;;;;;5.55;100.00;97804.31;5031015;28;20488;-50
2022/04/07 04:51:56;;;;;;;52.03;25.33;;;;;;;5.60;100.00;97801.56;5027997;28;20053;-50
2022/04/07 04:54:41;;;;;;;47.83;23.23;;;;;;;5.70;100.00;97799.47;5025646;28;20126;-50
2022/04/07 04:57:27;;;;;;;40.20;20.58;;;;;;;5.80;100.00;97798.22;5027260;28;20103;-49
2022/04/07 05:00:12;;;;;;;42.20;20.60;;;;;;;5.87;100.00;97794.47;5023696;28;20049;-50
2022/04/07 05:02:57;;;;;;;44.03;22.45;;;;;;;6.03;100.00;97792.19;5025914;28;20049;-50
2022/04/07 05:05:42;;;;;;;54.83;28.30;;;;;;;6.17;100.00;97792.47;5027158;28;20045;-50
2022/04/07 05:08:26;;;;;;;58.72;29.40;;;;;;;6.24;100.00;97793.06;5029536;28;20172;-50
2022/04/07 05:11:11;;;;;;;72.38;36.30;;;;;;;6.32;100.00;97791.03;5028834;28;20053;-49
2022/04/07 05:13:55;;;;;;;81.28;41.03;;;;;;;6.44;100.00;97789.72;5029790;28;20029;-49
2022/04/07 05:16:39;;;;;;;91.22;46.35;;;;;;;6.58;100.00;97779.56;5029924;28;20076;-49
2022/04/07 05:19:24;;;;;;;116.55;54.08;;;;;;;6.74;100.00;97792.81;5030243;28;20041;-50
2022/04/07 05:22:08;;;;;;;131.23;57.42;;;;;;;6.84;100.00;97785.47;5030993;28;20037;-50
2022/04/07 05:24:53;;;;;;;127.55;58.97;;;;;;;6.92;100.00;97779.03;5030869;28;20050;-50
2022/04/07 05:27:38;;;;;;;120.50;54.50;;;;;;;7.00;100.00;97773.50;5030089;28;20054;-50
2022/04/07 05:30:23;;;;;;;104.97;49.78;;;;;;;7.18;100.00;97774.44;5029709;28;20802;-50
2022/04/07 05:33:07;;;;;;;107.45;48.78;;;;;;;7.32;100.00;97785.13;5031084;28;20061;-50
2022/04/07 05:35:52;;;;;;;108.32;49.22;;;;;;;7.43;100.00;97775.06;5030927;28;20033;-50
2022/04/07 05:38:37;;;;;;;86.78;41.08;;;;;;;7.51;100.00;97772.13;5030600;28;20065;-50
2022/04/07 05:41:21;;;;;;;76.13;38.05;;;;;;;7.60;100.00;97779.50;5030388;28;20069;-50
2022/04/07 05:44:05;;;;;;;66.72;31.60;;;;;;;7.70;100.00;97775.59;5030993;28;20118;-50
2022/04/07 05:46:51;;;;;;;65.82;30.05;;;;;;;7.78;100.00;97772.63;5031296;28;20734;-50
2022/04/07 05:49:36;;;;;;;56.55;26.25;;;;;;;7.90;100.00;97779.06;5030131;28;20046;-50
2022/04/07 05:52:21;;;;;;;42.83;21.10;;;;;;;8.02;100.00;97777.63;5031022;28;20084;-50
2022/04/07 05:55:06;;;;;;;79.22;32.75;;;;;;;8.11;100.00;97774.59;5030533;28;20045;-50
2022/04/07 05:57:51;;;;;;;114.90;43.63;;;;;;;8.28;100.00;97779.00;5029539;28;20057;-50
2022/04/07 06:00:37;;;;;;;113.22;49.08;;;;;;;8.42;100.00;97771.41;5031217;28;20045;-50
2022/04/07 06:03:21;;;;;;;83.03;37.95;;;;;;;8.59;100.00;97774.03;5027673;28;20107;-50
2022/04/07 06:06:06;;;;;;;58.88;30.25;;;;;;;8.69;100.00;97777.03;5028500;28;20072;-50
2022/04/07 06:08:50;;;;;;;49.80;25.65;;;;;;;8.77;100.00;97777.47;5027024;28;20048;-50
2022/04/07 06:11:34;;;;;;;41.58;23.83;;;;;;;8.88;100.00;97772.56;5028164;28;20054;-50
2022/04/07 06:14:19;;;;;;;45.75;21.15;;;;;;;8.94;100.00;97766.19;5028641;28;20057;-50
2022/04/07 06:17:03;;;;;;;51.05;22.83;;;;;;;9.11;100.00;97768.78;5028801;28;20045;-50
2022/04/07 06:19:48;;;;;;;43.03;18.50;;;;;;;9.22;100.00;97763.00;5027731;28;20399;-50
2022/04/07 06:22:32;;;;;;;23.50;12.43;;;;;;;9.45;100.00;97774.03;5029555;28;20128;-51
2022/04/07 06:25:17;;;;;;;17.65;9.65;;;;;;;9.57;100.00;97766.38;5030062;28;20049;-49
2022/04/07 06:28:04;;;;;;;13.27;7.50;;;;;;;9.76;100.00;97765.41;5030328;28;20409;-51
2022/04/07 06:30:51;;;;;;;19.13;9.63;;;;;;;9.83;100.00;97756.28;5027561;28;20057;-50
2022/04/07 06:33:36;;;;;;;27.67;12.77;;;;;;;9.93;100.00;97761.88;5029246;28;20045;-50
2022/04/07 06:36:21;;;;;;;22.65;13.38;;;;;;;9.98;100.00;97758.09;5029371;28;20061;-51
2022/04/07 06:39:05;;;;;;;15.15;8.13;;;;;;;10.17;100.00;97757.91;5029789;28;20456;-50
2022/04/07 06:41:49;;;;;;;13.80;7.63;;;;;;;10.25;100.00;97768.78;5029580;28;20074;-50
2022/04/07 06:44:34;;;;;;;15.80;6.75;;;;;;;10.44;100.00;97758.16;5029314;28;20053;-50
2022/04/07 06:47:18;;;;;;;13.88;6.72;;;;;;;10.53;100.00;97754.19;5027929;28;20049;-51
2022/04/07 06:50:02;;;;;;;11.32;5.65;;;;;;;10.54;100.00;97761.09;5028144;28;20403;-51
2022/04/07 06:52:48;;;;;;;12.40;5.47;;;;;;;10.63;100.00;97757.13;5025233;28;20061;-50
2022/04/07 06:55:32;;;;;;;7.65;4.05;;;;;;;10.84;100.00;97755.00;5026342;28;20044;-51
2022/04/07 06:58:17;;;;;;;9.65;4.55;;;;;;;11.00;100.00;97755.78;5022141;28;20057;-51
2022/04/07 07:01:02;;;;;;;20.33;11.80;;;;;;;11.10;100.00;97756.09;5017339;28;20041;-51
2022/04/07 07:03:47;;;;;;;12.27;7.57;;;;;;;11.29;100.00;97766.31;5024731;28;20111;-51
2022/04/07 07:06:31;;;;;;;8.15;6.13;;;;;;;11.42;100.00;97762.84;5026458;28;20037;-51
2022/04/07 07:09:16;;;;;;;10.20;5.38;;;;;;;11.57;100.00;97760.22;5026596;28;20171;-51
2022/04/07 07:12:00;;;;;;;6.32;3.90;;;;;;;11.74;100.00;97752.19;5027328;28;20060;-51
2022/04/07 07:14:47;;;;;;;7.63;4.28;;;;;;;11.87;100.00;97752.28;5022616;28;20076;-51
2022/04/07 07:17:37;;;;;;;10.50;4.75;;;;;;;12.08;100.00;97745.66;5024898;28;20053;-51
2022/04/07 07:20:22;;;;;;;5.97;3.78;;;;;;;12.20;100.00;97741.44;5025151;28;20049;-51
2022/04/07 07:23:07;;;;;;;6.90;3.25;;;;;;;12.20;100.00;97732.72;5027826;28;20136;-51
2022/04/07 07:25:52;;;;;;;5.50;3.00;;;;;;;12.27;100.00;97732.22;5027710;28;20056;-52
2022/04/07 07:28:36;;;;;;;6.32;2.67;;;;;;;12.32;100.00;97731.94;5027265;28;20123;-51
2022/04/07 07:31:21;;;;;;;5.68;3.35;;;;;;;12.83;100.00;97718.91;5027787;28;20053;-51
2022/04/07 07:34:05;;;;;;;5.70;3.28;;;;;;;13.50;100.00;97724.00;5027970;28;20057;-52
2022/04/07 07:36:50;;;;;;;9.95;4.03;;;;;;;13.86;100.00;97703.94;5029577;28;20045;-52
2022/04/07 07:39:34;;;;;;;5.07;3.13;;;;;;;13.78;100.00;97715.03;5027514;28;20045;-52
2022/04/07 07:42:19;;;;;;;6.35;3.22;;;;;;;13.75;100.00;97707.34;5024948;28;20752;-52
2022/04/07 07:45:04;;;;;;;4.30;2.60;;;;;;;13.48;100.00;97704.84;5026427;28;20052;-51
2022/04/07 07:47:50;;;;;;;4.95;2.40;;;;;;;13.32;100.00;97703.31;5026293;28;20053;-51
2022/04/07 07:50:41;;;;;;;6.32;2.60;;;;;;;13.15;100.00;97702.75;5025332;28;20049;-51
2022/04/07 07:53:26;;;;;;;8.55;2.83;;;;;;;13.23;100.00;97703.91;5025446;28;20049;-51
2022/04/07 07:56:11;;;;;;;3.35;2.65;;;;;;;13.24;100.00;97708.25;5025307;28;20041;-51
2022/04/07 07:58:56;;;;;;;3.53;2.22;;;;;;;13.51;100.00;97692.34;5024389;28;20500;-51
2022/04/07 08:01:43;;;;;;;4.35;2.22;;;;;;;13.97;100.00;97701.38;5025163;28;20057;-52
2022/04/07 08:04:28;;;;;;;3.95;2.17;;;;;;;14.63;100.00;97694.78;5024393;28;20436;-52
2022/04/07 08:07:13;;;;;;;3.38;2.25;;;;;;;15.02;100.00;97687.47;5026219;28;20053;-52
2022/04/07 08:09:57;;;;;;;4.10;2.35;;;;;;;15.77;100.00;97686.06;5024374;28;20041;-51
2022/04/07 08:12:42;;;;;;;3.45;1.98;;;;;;;16.13;100.00;97672.53;5027726;28;20400;-51
2022/04/07 08:15:27;;;;;;;4.20;1.92;;;;;;;16.43;100.00;97664.84;5029208;28;20038;-52
2022/04/07 08:18:11;;;;;;;3.10;1.90;;;;;;;16.62;100.00;97670.28;5027501;28;20140;-52
2022/04/07 08:20:56;;;;;;;2.80;2.08;;;;;;;16.95;100.00;97673.75;5027404;28;20633;-51
2022/04/07 08:23:41;;;;;;;3.35;2.03;;;;;;;17.17;99.30;97665.66;5028838;28;20049;-52
2022/04/07 08:26:25;;;;;;;4.10;2.03;;;;;;;17.27;98.50;97671.00;5029334;28;20400;-52
2022/04/07 08:29:09;;;;;;;4.43;1.40;;;;;;;17.31;96.29;97661.81;5028201;28;20144;-51
2022/04/07 08:31:54;;;;;;;2.22;1.77;;;;;;;17.36;86.35;97658.78;5026856;28;20045;-52
2022/04/07 08:34:38;;;;;;;4.63;2.92;;;;;;;17.50;82.44;97643.38;5026516;28;20049;-52
2022/04/07 08:37:22;;;;;;;7.05;2.33;;;;;;;17.29;82.16;97655.84;5027272;28;20057;-52
2022/04/07 08:40:07;;;;;;;7.13;3.70;;;;;;;17.22;83.37;97649.38;5028513;28;20037;-52
2022/04/07 08:42:52;;;;;;;1.88;1.05;;;;;;;17.34;82.16;97650.97;5030209;28;20053;-52
2022/04/07 08:45:37;;;;;;;3.58;2.47;;;;;;;17.35;80.53;97638.56;5031198;28;20128;-52
2022/04/07 08:48:23;;;;;;;3.28;1.35;;;;;;;17.35;80.89;97644.69;5032136;28;20049;-52
2022/04/07 08:51:07;;;;;;;1.52;0.90;;;;;;;17.58;79.57;97633.91;5032250;28;20053;-51
2022/04/07 08:53:53;;;;;;;1.70;1.23;;;;;;;17.69;79.77;97642.59;5028861;28;20131;-52
2022/04/07 08:56:37;;;;;;;1.90;1.50;;;;;;;17.83;80.05;97624.69;5028393;28;20065;-51
2022/04/07 08:59:23;;;;;;;1.38;0.88;;;;;;;17.77;78.98;97625.22;5027972;28;20381;-52
2022/04/07 09:02:09;;;;;;;6.00;2.22;;;;;;;17.82;78.23;97621.22;5029708;28;20128;-52
2022/04/07 09:04:58;;;;;;;2.80;1.67;;;;;;;17.75;77.35;97631.47;5031117;28;20034;-51
2022/04/07 09:07:45;;;;;;;1.00;0.60;;;;;;;17.90;80.25;97616.03;5031003;28;20129;-51
2022/04/07 09:10:29;;;;;;;2.72;1.70;;;;;;;17.83;76.91;97617.56;5031607;28;20481;-52
2022/04/07 09:13:16;;;;;;;0.95;0.90;;;;;;;17.72;77.49;97610.56;5030907;28;20053;-52
2022/04/07 09:16:03;;;;;;;2.67;1.40;;;;;;;17.77;77.08;97604.88;5029587;28;20068;-52
2022/04/07 09:18:48;;;;;;;3.38;1.10;;;;;;;17.70;75.09;97606.38;5030517;28;20431;-52
2022/04/07 09:21:37;;;;;;;1.15;1.02;;;;;;;17.42;76.28;97600.03;5031793;28;20360;-51
2022/04/07 09:24:26;;;;;;;3.78;1.00;;;;;;;17.31;76.38;97603.63;5030130;28;20061;-52
2022/04/07 09:27:12;;;;;;;3.30;1.40;;;;;;;17.48;77.01;97597.69;5030435;28;20045;-51
2022/04/07 09:29:56;;;;;;;1.90;1.00;;;;;;;17.81;77.82;97597.50;5030455;28;20046;-52
2022/04/07 09:32:44;;;;;;;1.88;1.00;;;;;;;18.03;73.29;97589.31;5030185;28;20053;-53
2022/04/07 09:35:28;;;;;;;2.72;1.52;;;;;;;17.78;74.14;97582.75;5029621;28;20053;-52
2022/04/07 09:38:23;;;;;;;3.78;1.90;;;;;;;17.44;73.91;97587.50;5029517;28;20057;-52
2022/04/07 09:41:10;;;;;;;2.95;1.33;;;;;;;17.22;75.93;97580.59;5031338;28;20049;-51
2022/04/07 09:43:59;;;;;;;4.95;1.55;;;;;;;17.38;78.08;97577.47;5028847;28;20041;-52
2022/04/07 09:46:44;;;;;;;1.17;0.98;;;;;;;17.77;75.73;97565.16;5029231;28;20472;-52
2022/04/07 09:49:29;;;;;;;3.92;1.00;;;;;;;17.62;73.02;97571.81;5029650;28;20053;-52
2022/04/07 09:52:14;;;;;;;1.00;0.70;;;;;;;17.33;73.75;97571.75;5031609;28;20053;-51
2022/04/07 09:55:08;;;;;;;4.60;2.55;;;;;;;16.96;74.55;97572.28;5028673;28;20041;-51
2022/04/07 09:57:54;;;;;;;1.92;1.10;;;;;;;16.83;72.88;97564.56;5029150;28;20069;-51
2022/04/07 10:00:38;;;;;;;1.92;0.98;;;;;;;16.58;72.91;97558.72;5012286;28;20701;-52
2022/04/07 10:03:23;;;;;;;3.63;1.52;;;;;;;16.66;73.75;97555.41;5028101;28;20439;-52
2022/04/07 10:06:08;;;;;;;3.88;2.35;;;;;;;16.68;73.99;97552.66;5028819;28;20049;-52
2022/04/07 10:08:52;;;;;;;4.15;2.25;;;;;;;16.69;73.95;97543.75;5029011;28;20045;-51
2022/04/07 10:11:36;;;;;;;4.82;2.10;;;;;;;16.82;75.09;97534.66;5025977;28;20357;-51
2022/04/07 10:14:23;;;;;;;7.80;5.03;;;;;;;17.02;75.23;97532.09;5027783;28;20048;-52
2022/04/07 10:17:10;;;;;;;27.13;19.63;;;;;;;17.03;74.31;97531.97;5029078;28;20049;-53
2022/04/07 10:20:00;;;;;;;80.15;50.70;;;;;;;17.09;72.55;97521.81;5029022;28;20041;-52
2022/04/07 10:23:03;;;;;;;16.30;10.40;;;;;;;17.43;72.32;97525.00;5029682;28;20049;-52
2022/04/07 10:25:50;;;;;;;;;;;;;;;17.67;70.04;97511.34;5028804;28;20049;-52
2022/04/07 10:28:35;;;;;;;1.20;0.98;;;;;;;17.74;67.13;97510.69;5027649;28;19925;-52
2022/04/07 10:31:19;;;;;;;1.08;0.63;;;;;;;17.58;67.53;97493.66;5027997;28;20057;-51
2022/04/07 10:34:06;;;;;;;5.93;0.63;;;;;;;17.64;68.80;97504.53;5029078;28;20046;-52
2022/04/07 10:37:02;;;;;;;2.10;0.50;;;;;;;17.55;68.08;97504.50;5024662;28;21080;-52
2022/04/07 10:39:46;;;;;;;1.48;0.98;;;;;;;17.36;68.16;97494.75;5028459;28;20050;-52
2022/04/07 10:43:17;;;;;;;2.15;0.63;;;;;;;16.97;69.47;97487.56;5029472;28;20053;-52
2022/04/07 10:46:02;;;;;;;4.55;1.10;;;;;;;16.84;67.83;97492.25;5028433;28;20128;-51
2022/04/07 10:49:03;;;;;;;3.00;1.08;;;;;;;16.73;69.14;97482.56;5026796;28;20050;-51
2022/04/07 10:51:55;;;;;;;3.88;1.30;;;;;;;16.87;68.68;97478.78;5028775;28;20088;-52
2022/04/07 10:55:13;;;;;;;30.20;21.08;;;;;;;17.01;68.77;97466.97;5028975;28;20132;-52
2022/04/07 10:58:14;;;;;;;31.75;23.58;;;;;;;17.05;70.53;97440.13;5029404;28;20585;-51
2022/04/07 11:00:58;;;;;;;8.55;6.35;;;;;;;17.34;66.33;97438.50;5027799;28;20037;-51
2022/04/07 11:04:21;;;;;;;18.85;15.25;;;;;;;17.41;66.52;97444.91;5030004;28;20049;-51
2022/04/07 11:07:13;;;;;;;9.30;8.17;;;;;;;17.66;66.08;97449.66;5020356;28;20050;-52
2022/04/07 11:09:58;;;;;;;3.42;3.00;;;;;;;17.74;66.02;97422.47;5027887;28;20350;-52
2022/04/07 11:12:59;;;;;;;1.13;0.93;;;;;;;17.76;64.74;97415.22;5030134;28;20468;-51
2022/04/07 11:15:57;;;;;;;0.55;0.45;;;;;;;17.58;63.48;97415.13;5030608;28;20041;-51
2022/04/07 11:19:01;;;;;;;2.35;1.00;;;;;;;17.64;64.86;97419.81;5023515;28;20095;-52
2022/04/07 11:21:50;;;;;;;3.78;1.10;;;;;;;17.68;63.81;97409.81;5027205;28;20099;-52
2022/04/07 11:24:42;;;;;;;1.23;0.45;;;;;;;17.57;64.10;97399.38;5026371;28;20056;-51
2022/04/07 11:27:36;;;;;;;1.15;0.40;;;;;;;17.55;64.89;97396.88;5027332;28;20491;-51
2022/04/07 11:30:20;;;;;;;1.55;0.60;;;;;;;17.62;67.94;97392.69;5024702;28;20053;-52
2022/04/07 11:33:28;;;;;;;2.33;0.40;;;;;;;17.85;63.81;97368.56;5025522;28;20053;-51
2022/04/07 11:36:13;;;;;;;0.90;0.50;;;;;;;18.01;64.82;97378.56;5027832;28;20116;-52
2022/04/07 11:38:58;;;;;;;0.98;0.70;;;;;;;18.40;65.75;97373.97;5027307;28;20480;-52
2022/04/07 11:41:43;;;;;;;1.25;0.70;;;;;;;18.84;65.46;97371.53;5027463;28;20495;-52
2022/04/07 11:44:28;;;;;;;0.80;0.50;;;;;;;18.94;62.01;97361.69;5023065;28;20096;-52
2022/04/07 11:47:22;;;;;;;1.15;0.50;;;;;;;18.94;59.14;97379.41;5028472;28;20116;-51
2022/04/07 11:50:09;;;;;;;1.00;0.40;;;;;;;18.75;58.91;97373.28;5027515;28;20057;-52
2022/04/07 11:52:53;;;;;;;1.45;0.40;;;;;;;18.80;60.00;97364.84;5027999;28;20045;-52
2022/04/07 11:55:38;;;;;;;4.22;0.70;;;;;;;18.94;60.90;97358.19;5024582;28;20376;-51
2022/04/07 11:58:22;;;;;;;12.75;1.45;;;;;;;19.05;57.69;97353.53;5027169;28;20045;-51
2022/04/07 12:01:11;;;;;;;7.38;4.20;;;;;;;19.04;58.92;97337.75;5028146;28;20044;-51
2022/04/07 12:03:58;;;;;;;1.85;1.42;;;;;;;19.15;57.44;97334.88;5027852;28;20049;-51
2022/04/07 12:06:44;;;;;;;2.65;0.60;;;;;;;19.08;52.44;97336.47;5024977;28;20115;-52
2022/04/07 12:09:28;;;;;;;13.50;10.35;;;;;;;19.11;52.16;97329.03;5026546;28;20627;-51
2022/04/07 12:12:13;;;;;;;12.38;8.88;;;;;;;18.60;51.35;97337.59;5030549;28;20472;-51
2022/04/07 12:14:58;;;;;;;21.13;15.10;;;;;;;18.25;54.00;97317.13;5027787;28;20097;-52
2022/04/07 12:17:58;;;;;;;6.75;4.35;;;;;;;18.70;53.44;97306.56;5030306;28;20404;-51
2022/04/07 12:20:43;;;;;;;28.42;19.27;;;;;;;18.72;53.12;97307.28;5030066;28;20063;-51
2022/04/07 12:23:28;;;;;;;5.75;3.60;;;;;;;18.71;52.99;97302.09;5030480;28;20056;-51
2022/04/07 12:26:13;;;;;;;5.82;3.83;;;;;;;18.66;53.55;97294.59;5031268;28;20053;-51
2022/04/07 12:29:06;;;;;;;5.50;4.57;;;;;;;18.64;54.51;97286.78;5028557;28;20512;-51
2022/04/07 12:32:01;;;;;;;2.47;1.27;;;;;;;18.75;54.13;97275.16;5024891;28;20108;-52
2022/04/07 12:34:48;;;;;;;1.85;0.60;;;;;;;18.71;55.00;97270.28;5030328;28;20619;-51
2022/04/07 12:37:36;;;;;;;1.08;0.40;;;;;;;18.85;54.78;97272.44;5029132;28;20033;-52
2022/04/07 12:40:26;;;;;;;1.65;0.60;;;;;;;18.75;55.04;97266.34;5030102;28;20103;-51
2022/04/07 12:43:10;;;;;;;1.02;0.63;;;;;;;18.82;54.51;97243.59;5027864;28;20046;-51
2022/04/07 12:45:58;;;;;;;5.10;0.80;;;;;;;18.81;57.12;97260.44;5029721;28;20053;-51
2022/04/07 12:49:05;;;;;;;2.63;0.43;;;;;;;18.77;53.53;97259.94;5029187;28;20080;-52
2022/04/07 12:51:59;;;;;;;0.52;0.40;;;;;;;18.77;50.12;97244.03;5031890;28;20091;-51